Startpagina
METAR-TAF:

METAR-TAF

Vliegvelden :

Alice Springs, Australië

breedte: 23-48S, lengte: 133-53E, hoogte: 545 m

Actueel weer

Dit bericht is 46 minuten geleden gemaakt, om 02:00 UTC
Wind 8 kt uit het noorden, variërend tussen het noorden en het noordoosten
Temperatuur 19°C
Vochtigheid 13%
Druk 1021 hPa
Zicht 10 km of meer

METAR: YBAS 210200Z AUTO 01008KT 350V050 9999 // NCD 19/M10 Q1021 RF00.0/000.0 PRESENT WEATHER SENSOR US

Tijdstip: 12:16 (02:46 UTC)

Verwachting

Dit bericht is 3 uur en het 42 minuten geleden gemaakt, om 23:04 UTC
Verwachting geldig van 21 om 00 UTC tot 21 om 24 UTC
Wind 6 kt uit het noordnoordwesten
Zicht 10 km of meer
geen wolken onder 1500 m en geen cumulonimbus
Van 21 om 0800 UTC
Wind 4 kt uit het noordnoordoosten
Zicht 10 km of meer
geen wolken onder 1500 m en geen cumulonimbus
Van 21 om 1600 UTC
Wind 5 kt uit het noordwesten
Zicht 10 km of meer
geen wolken onder 1500 m en geen cumulonimbus

TAF: YBAS 202304Z 2100/2124 33006KT CAVOK FM210800 03004KT CAVOK FM211600 32005KT CAVOK

Waarnemingen en weersverwachtingen van meer dan 4000 vliegvelden (METAR en TAF).

De beschikbare stations zijn de gele en rode punten op de kaart.

Ga met uw muis naar het station om de naam te zien.

Klik dan om waarnemingen en weersverwachtingen te zien.

kaart wijzigen: klik op de groene knoppen met een zwart kruis om in te zoomen, op de groene knop met een streepje om uit te zoomen of op de groene pijlen voor aangrenzende kaarten.


METAR-TAF: